createdAt,value
2022-09-14T00:01:57.626Z,100108.00
2022-09-14T00:04:30.411Z,100101.00
2022-09-14T00:07:00.585Z,100096.00
2022-09-14T00:09:31.391Z,100092.00
2022-09-14T00:12:01.751Z,100095.00
2022-09-14T00:14:32.869Z,100103.00
2022-09-14T00:17:03.187Z,100089.00
2022-09-14T00:19:36.259Z,100093.00
2022-09-14T00:22:06.944Z,100084.00
2022-09-14T00:24:37.204Z,100083.00
2022-09-14T00:27:07.602Z,100068.00
2022-09-14T00:29:37.729Z,100079.00
2022-09-14T00:32:08.171Z,100073.00
2022-09-14T00:34:40.910Z,100081.00
2022-09-14T00:37:11.021Z,100067.00
2022-09-14T00:39:41.581Z,100065.00
2022-09-14T00:42:19.719Z,100069.00
2022-09-14T00:45:08.427Z,100059.00
2022-09-14T00:47:38.956Z,100053.00
2022-09-14T00:50:13.338Z,100062.00
2022-09-14T00:52:48.937Z,100058.00
2022-09-14T00:55:23.604Z,100054.00
2022-09-14T00:57:56.375Z,100050.00
2022-09-14T01:00:30.707Z,100056.00
2022-09-14T01:03:01.579Z,100053.00
2022-09-14T01:05:50.665Z,100044.00
2022-09-14T01:08:48.938Z,100038.00
2022-09-14T01:11:53.940Z,100047.00
2022-09-14T01:14:35.395Z,100038.00
2022-09-14T01:17:14.520Z,100041.00
2022-09-14T01:20:29.668Z,100038.00
2022-09-14T01:23:12.561Z,100038.00
2022-09-14T01:26:18.305Z,100031.00
2022-09-14T01:28:55.725Z,100032.00
2022-09-14T01:31:33.711Z,100037.00
2022-09-14T01:34:12.124Z,100031.00
2022-09-14T01:36:45.736Z,100028.00
2022-09-14T01:39:17.930Z,100035.00
2022-09-14T01:41:49.855Z,100029.00
2022-09-14T01:44:28.819Z,100022.00
2022-09-14T01:47:04.816Z,100029.00
2022-09-14T01:49:40.449Z,100037.00
2022-09-14T01:52:16.114Z,100031.00
2022-09-14T01:54:51.841Z,100034.00
2022-09-14T01:57:27.965Z,100023.00
2022-09-14T02:00:11.053Z,100031.00
2022-09-14T02:02:46.942Z,100024.00
2022-09-14T02:05:23.930Z,100028.00
2022-09-14T02:07:54.412Z,100043.00
2022-09-14T02:10:25.452Z,100039.00
2022-09-14T02:12:56.375Z,100027.00
2022-09-14T02:15:29.400Z,100032.00
2022-09-14T02:17:59.544Z,100030.00
2022-09-14T02:20:39.181Z,100025.00
2022-09-14T02:23:09.847Z,100033.00
2022-09-14T02:25:41.252Z,100025.00
2022-09-14T02:28:11.485Z,100030.00
2022-09-14T02:30:53.799Z,100038.00
2022-09-14T02:33:32.761Z,100028.00
2022-09-14T02:36:10.588Z,100019.00
2022-09-14T02:38:49.161Z,100031.00
2022-09-14T02:41:28.066Z,100020.00
2022-09-14T02:44:07.785Z,100020.00
2022-09-14T02:46:51.394Z,100033.00
2022-09-14T02:49:28.937Z,100018.00
2022-09-14T02:52:06.560Z,100013.00
2022-09-14T02:54:41.999Z,100023.00
2022-09-14T02:57:12.280Z,100011.00
2022-09-14T02:59:42.414Z,100009.00
2022-09-14T03:02:15.287Z,100013.00
2022-09-14T03:04:45.388Z,100011.00
2022-09-14T03:07:15.516Z,100011.00
2022-09-14T03:09:45.604Z,100013.00
2022-09-14T03:12:15.745Z,100019.00
2022-09-14T03:14:45.999Z,100024.00
2022-09-14T03:17:18.813Z,100008.00
2022-09-14T03:19:48.914Z,100016.00
2022-09-14T03:22:19.023Z,100016.00
2022-09-14T03:24:49.359Z,100008.00
2022-09-14T03:27:19.547Z,100016.00
2022-09-14T03:29:49.726Z,100016.00
2022-09-14T03:32:22.400Z,100014.00
2022-09-14T03:34:52.562Z,100019.00
2022-09-14T03:37:22.834Z,100021.00
2022-09-14T03:39:53.082Z,100011.00
2022-09-14T03:42:23.409Z,100008.00
2022-09-14T03:44:53.595Z,100004.00
2022-09-14T03:47:26.525Z,99994.00
2022-09-14T03:49:57.282Z,99996.00
2022-09-14T03:52:30.001Z,100004.00
2022-09-14T03:55:00.139Z,100002.00
2022-09-14T03:57:30.289Z,99997.00
2022-09-14T04:00:00.416Z,99993.00
2022-09-14T04:02:34.148Z,100004.00
2022-09-14T04:05:04.368Z,99995.00
2022-09-14T04:07:34.680Z,99993.00
2022-09-14T04:10:05.950Z,100002.00
2022-09-14T04:12:38.663Z,100004.00
2022-09-14T04:15:10.324Z,99998.00
2022-09-14T04:17:43.343Z,99994.00
2022-09-14T04:20:14.047Z,99987.00
2022-09-14T04:22:44.543Z,100006.00
2022-09-14T04:25:15.005Z,100006.00
2022-09-14T04:27:55.010Z,99999.00
2022-09-14T04:30:34.638Z,99996.00
2022-09-14T04:33:07.571Z,100004.00
2022-09-14T04:35:37.876Z,100004.00
2022-09-14T04:38:08.061Z,99990.00
2022-09-14T04:40:38.208Z,99990.00
2022-09-14T04:43:08.540Z,99993.00
2022-09-14T04:45:38.702Z,99995.00
2022-09-14T04:48:11.577Z,99990.00
2022-09-14T04:50:41.943Z,100001.00
2022-09-14T04:53:12.308Z,99996.00
2022-09-14T04:55:42.600Z,99998.00
2022-09-14T04:58:12.660Z,99988.00
2022-09-14T05:00:42.829Z,99982.00
2022-09-14T05:03:15.594Z,99988.00
2022-09-14T05:05:45.758Z,99986.00
2022-09-14T05:08:15.881Z,99985.00
2022-09-14T05:10:46.094Z,99983.00
2022-09-14T05:13:16.743Z,99978.00
2022-09-14T05:15:47.092Z,99972.00
2022-09-14T05:18:20.117Z,99973.00
2022-09-14T05:20:50.298Z,99980.00
2022-09-14T05:23:20.436Z,99974.00
2022-09-14T05:25:56.133Z,99970.00
2022-09-14T05:28:27.071Z,99969.00
2022-09-14T05:30:57.745Z,99968.00
2022-09-14T05:33:30.440Z,99980.00
2022-09-14T05:36:04.524Z,99979.00
2022-09-14T05:38:35.185Z,99977.00
2022-09-14T05:41:05.600Z,99968.00
2022-09-14T05:43:36.096Z,99969.00
2022-09-14T05:46:08.818Z,99979.00
2022-09-14T05:48:43.031Z,99973.00
2022-09-14T05:51:16.761Z,99977.00
2022-09-14T05:53:50.620Z,99968.00
2022-09-14T05:56:23.027Z,99973.00
2022-09-14T05:58:53.904Z,99975.00
2022-09-14T06:01:27.691Z,99964.00
2022-09-14T06:04:03.037Z,99977.00
2022-09-14T06:06:36.810Z,99966.00
2022-09-14T06:09:07.477Z,99979.00
2022-09-14T06:11:39.567Z,99955.00
2022-09-14T06:14:10.201Z,99969.00
2022-09-14T06:16:40.415Z,99968.00
2022-09-14T06:19:15.321Z,99957.00
2022-09-14T06:21:45.842Z,99964.00
2022-09-14T06:24:16.393Z,99968.00
2022-09-14T06:26:46.688Z,99968.00
2022-09-14T06:29:16.862Z,99968.00
2022-09-14T06:31:47.026Z,99963.00
2022-09-14T06:34:19.892Z,99953.00
2022-09-14T06:36:50.044Z,99953.00
2022-09-14T06:39:20.201Z,99951.00
2022-09-14T06:41:52.052Z,99952.00
2022-09-14T06:44:22.488Z,99958.00
2022-09-14T06:46:52.761Z,99959.00
2022-09-14T06:49:25.505Z,99958.00
2022-09-14T06:51:57.616Z,99950.00
2022-09-14T06:54:28.064Z,99952.00
2022-09-14T06:56:58.579Z,99958.00
2022-09-14T06:59:28.654Z,99964.00
2022-09-14T07:01:59.157Z,99956.00
2022-09-14T07:04:31.887Z,99957.00
2022-09-14T07:07:02.043Z,99962.00
2022-09-14T07:09:32.260Z,99957.00
2022-09-14T07:12:02.417Z,99963.00
2022-09-14T07:14:32.642Z,99966.00
2022-09-14T07:17:02.867Z,99967.00
2022-09-14T07:19:35.618Z,99966.00
2022-09-14T07:22:05.900Z,99968.00
2022-09-14T07:24:35.994Z,99965.00
2022-09-14T07:27:06.165Z,99966.00
2022-09-14T07:29:36.612Z,99968.00
2022-09-14T07:32:06.794Z,99969.00
2022-09-14T07:34:39.479Z,99967.00
2022-09-14T07:37:09.649Z,99959.00
2022-09-14T07:39:39.855Z,99967.00
2022-09-14T07:42:10.581Z,99971.00
2022-09-14T07:44:40.752Z,99958.00
2022-09-14T07:47:10.784Z,99959.00
2022-09-14T07:49:43.547Z,99956.00
2022-09-14T07:52:14.101Z,99965.00
2022-09-14T07:54:44.467Z,99960.00
2022-09-14T07:57:14.759Z,99964.00
2022-09-14T07:59:45.125Z,99972.00
2022-09-14T08:02:16.377Z,99981.00
2022-09-14T08:04:49.091Z,99971.00
2022-09-14T08:07:19.194Z,99965.00
2022-09-14T08:09:49.477Z,99972.00
2022-09-14T08:12:19.613Z,99966.00
2022-09-14T08:14:51.133Z,99968.00
2022-09-14T08:17:22.177Z,99972.00
2022-09-14T08:19:55.887Z,99967.00
2022-09-14T08:22:26.089Z,99965.00
2022-09-14T08:24:56.257Z,99972.00
2022-09-14T08:27:26.380Z,99965.00
2022-09-14T08:29:56.597Z,99966.00
2022-09-14T08:32:26.617Z,99959.00
2022-09-14T08:34:59.308Z,99971.00
2022-09-14T08:37:29.332Z,99963.00
2022-09-14T08:39:59.552Z,99955.00
2022-09-14T08:42:30.752Z,99956.00
2022-09-14T08:45:09.509Z,99958.00
2022-09-14T08:47:42.077Z,99962.00
2022-09-14T08:50:20.054Z,99957.00
2022-09-14T08:52:53.071Z,99943.00
2022-09-14T08:55:34.654Z,99938.00
2022-09-14T08:58:11.183Z,99947.00
2022-09-14T09:00:47.453Z,99963.00
2022-09-14T09:04:06.567Z,99955.00
2022-09-14T09:06:47.410Z,99955.00
2022-09-14T09:09:26.574Z,99956.00
2022-09-14T09:11:59.015Z,99955.00
2022-09-14T09:14:35.710Z,99953.00
2022-09-14T09:17:17.689Z,99948.00
2022-09-14T09:20:01.986Z,99947.00
2022-09-14T09:22:43.219Z,99958.00
2022-09-14T09:25:23.915Z,99961.00
2022-09-14T09:27:57.433Z,99955.00
2022-09-14T09:30:27.655Z,99950.00
2022-09-14T09:32:58.015Z,99943.00
2022-09-14T09:35:29.025Z,99944.00
2022-09-14T09:38:01.937Z,99944.00
2022-09-14T09:40:39.832Z,99948.00
2022-09-14T09:43:18.688Z,99951.00
2022-09-14T09:46:03.031Z,99939.00
2022-09-14T09:48:42.700Z,99937.00
2022-09-14T09:51:16.917Z,99939.00
2022-09-14T09:53:59.467Z,99944.00
2022-09-14T09:56:33.677Z,99935.00
2022-09-14T09:59:03.807Z,99930.00
2022-09-14T10:01:36.912Z,99930.00
2022-09-14T10:04:19.327Z,99935.00
2022-09-14T10:06:53.287Z,99932.00
2022-09-14T10:09:29.992Z,99922.00
2022-09-14T10:12:02.840Z,99933.00
2022-09-14T10:14:35.513Z,99929.00
2022-09-14T10:17:18.452Z,99917.00
2022-09-14T10:19:51.661Z,99920.00
2022-09-14T10:22:29.791Z,99922.00
2022-09-14T10:25:11.302Z,99923.00
2022-09-14T10:27:44.974Z,99916.00
2022-09-14T10:30:20.621Z,99924.00
2022-09-14T10:33:00.527Z,99918.00
2022-09-14T10:35:46.011Z,99912.00
2022-09-14T10:38:33.909Z,99924.00
2022-09-14T10:41:24.625Z,99927.00
2022-09-14T10:44:40.845Z,99919.00
2022-09-14T10:47:32.891Z,99913.00
2022-09-14T10:50:23.732Z,99906.00
2022-09-14T10:53:07.002Z,99902.00
2022-09-14T10:55:46.524Z,99902.00
2022-09-14T10:58:38.183Z,99891.00
2022-09-14T11:01:25.979Z,99902.00
2022-09-14T11:04:09.397Z,99901.00
2022-09-14T11:06:56.778Z,99893.00
2022-09-14T11:09:30.979Z,99895.00
2022-09-14T11:12:11.946Z,99894.00
2022-09-14T11:15:04.550Z,99893.00
2022-09-14T11:18:01.755Z,99896.00
2022-09-14T11:20:44.523Z,99904.00
2022-09-14T11:23:32.929Z,99903.00
2022-09-14T11:26:08.211Z,99913.00
2022-09-14T11:28:44.361Z,99907.00
2022-09-14T11:31:25.151Z,99894.00
2022-09-14T11:34:00.968Z,99890.00
2022-09-14T11:36:36.718Z,99895.00
2022-09-14T11:39:14.799Z,99892.00
2022-09-14T11:41:52.970Z,99895.00
2022-09-14T11:44:27.772Z,99900.00
2022-09-14T11:47:09.364Z,99901.00
2022-09-14T11:49:59.282Z,99907.00
2022-09-14T11:52:32.107Z,99896.00
2022-09-14T11:55:05.783Z,99893.00
2022-09-14T11:57:37.335Z,99890.00
2022-09-14T12:00:12.556Z,99894.00
2022-09-14T12:03:04.519Z,99881.00
2022-09-14T12:05:38.298Z,99884.00
2022-09-14T12:08:45.309Z,99878.00
2022-09-14T12:11:37.490Z,99882.00
2022-09-14T12:14:35.941Z,99876.00
2022-09-14T12:20:40.594Z,99882.00
2022-09-14T12:23:29.912Z,99884.00
2022-09-14T12:26:38.430Z,99878.00
2022-09-14T12:29:30.513Z,99884.00
2022-09-14T12:32:23.912Z,99876.00
2022-09-14T12:35:50.236Z,99876.00
2022-09-14T12:38:45.251Z,99874.00
2022-09-14T12:42:01.910Z,99880.00
2022-09-14T12:44:35.641Z,99870.00
2022-09-14T12:47:59.584Z,99872.00
2022-09-14T12:50:34.439Z,99868.00
2022-09-14T12:53:27.058Z,99861.00
2022-09-14T12:56:06.257Z,99864.00
2022-09-14T12:58:59.989Z,99867.00
2022-09-14T13:01:39.507Z,99865.00
2022-09-14T13:04:17.740Z,99857.00
2022-09-14T13:06:52.437Z,99862.00
2022-09-14T13:09:28.965Z,99852.00
2022-09-14T13:12:03.568Z,99857.00
2022-09-14T13:14:42.761Z,99826.00
2022-09-14T13:17:18.127Z,99836.00
2022-09-14T13:19:58.132Z,99836.00
2022-09-14T13:22:32.078Z,99833.00
2022-09-14T13:25:04.910Z,99826.00
2022-09-14T13:27:37.516Z,99801.00
2022-09-14T13:30:11.077Z,99797.00
2022-09-14T13:32:46.593Z,99791.00
2022-09-14T13:35:30.335Z,99801.00
2022-09-14T13:38:02.645Z,99811.00
2022-09-14T13:40:35.719Z,99799.00
2022-09-14T13:43:06.360Z,99795.00
2022-09-14T13:45:37.176Z,99799.00
2022-09-14T13:48:09.280Z,99797.00
2022-09-14T13:50:39.659Z,99797.00
2022-09-14T13:53:45.769Z,99788.00
2022-09-14T13:56:26.317Z,99795.00
2022-09-14T13:59:23.085Z,99794.00
2022-09-14T14:02:01.037Z,99798.00
2022-09-14T14:04:37.330Z,99802.00
2022-09-14T14:07:17.573Z,99802.00
2022-09-14T14:09:52.032Z,99796.00
2022-09-14T14:12:30.997Z,99788.00
2022-09-14T14:15:03.731Z,99794.00
2022-09-14T14:17:42.281Z,99791.00
2022-09-14T14:20:36.853Z,99783.00
2022-09-14T14:23:23.352Z,99782.00
2022-09-14T14:25:55.635Z,99785.00
2022-09-14T14:28:33.358Z,99778.00
2022-09-14T14:31:08.505Z,99781.00
2022-09-14T14:33:46.540Z,99781.00
2022-09-14T14:36:17.929Z,99768.00
2022-09-14T14:38:48.765Z,99768.00
2022-09-14T14:41:22.214Z,99774.00
2022-09-14T14:43:55.156Z,99766.00
2022-09-14T14:46:25.538Z,99761.00
2022-09-14T14:48:55.785Z,99770.00
2022-09-14T14:51:26.039Z,99771.00
2022-09-14T14:53:56.386Z,99761.00
2022-09-14T14:56:26.648Z,99777.00
2022-09-14T14:59:02.232Z,99769.00
2022-09-14T15:01:33.013Z,99762.00
2022-09-14T15:04:03.467Z,99768.00
2022-09-14T15:06:34.335Z,99773.00
2022-09-14T15:09:08.734Z,99759.00
2022-09-14T15:11:41.355Z,99758.00
2022-09-14T15:14:17.206Z,99757.00
2022-09-14T15:16:48.571Z,99759.00
2022-09-14T15:19:19.285Z,99749.00
2022-09-14T15:21:49.373Z,99752.00
2022-09-14T15:24:19.450Z,99758.00
2022-09-14T15:26:49.593Z,99754.00
2022-09-14T15:29:22.350Z,99759.00
2022-09-14T15:31:52.625Z,99751.00
2022-09-14T15:34:22.870Z,99746.00
2022-09-14T15:36:55.798Z,99746.00
2022-09-14T15:39:29.110Z,99751.00
2022-09-14T15:42:00.303Z,99756.00
2022-09-14T15:44:33.770Z,99745.00
2022-09-14T15:47:04.771Z,99756.00
2022-09-14T15:49:34.971Z,99752.00
2022-09-14T15:52:05.822Z,99745.00
2022-09-14T15:54:38.927Z,99735.00
2022-09-14T15:57:14.097Z,99744.00
2022-09-14T15:59:46.901Z,99755.00
2022-09-14T16:02:17.758Z,99747.00
2022-09-14T16:04:47.921Z,99745.00
2022-09-14T16:07:18.149Z,99754.00
2022-09-14T16:09:48.375Z,99749.00
2022-09-14T16:12:18.451Z,99748.00
2022-09-14T16:14:51.204Z,99741.00
2022-09-14T16:17:21.348Z,99759.00
2022-09-14T16:19:53.139Z,99759.00
2022-09-14T16:22:23.574Z,99758.00
2022-09-14T16:24:53.777Z,99741.00
2022-09-14T16:27:24.001Z,99742.00
2022-09-14T16:29:57.213Z,99736.00
2022-09-14T16:32:27.687Z,99740.00
2022-09-14T16:34:57.858Z,99733.00
2022-09-14T16:37:28.092Z,99733.00
2022-09-14T16:39:58.224Z,99734.00
2022-09-14T16:42:28.322Z,99740.00
2022-09-14T16:45:01.112Z,99739.00
2022-09-14T16:47:32.414Z,99743.00
2022-09-14T16:50:02.739Z,99743.00
2022-09-14T16:52:32.907Z,99744.00
2022-09-14T16:55:03.173Z,99742.00
2022-09-14T16:57:33.420Z,99752.00
2022-09-14T17:00:07.438Z,99733.00
2022-09-14T17:02:37.638Z,99733.00
2022-09-14T17:05:11.962Z,99734.00
2022-09-14T17:07:42.168Z,99738.00
2022-09-14T17:10:13.136Z,99736.00
2022-09-14T17:12:44.389Z,99729.00
2022-09-14T17:15:17.626Z,99734.00
2022-09-14T17:17:47.834Z,99731.00
2022-09-14T17:20:18.380Z,99729.00
2022-09-14T17:22:48.592Z,99732.00
2022-09-14T17:25:18.906Z,99738.00
2022-09-14T17:27:49.465Z,99720.00
2022-09-14T17:30:22.252Z,99730.00
2022-09-14T17:32:52.532Z,99725.00
2022-09-14T17:35:22.949Z,99723.00
2022-09-14T17:37:53.117Z,99718.00
2022-09-14T17:40:23.431Z,99721.00
2022-09-14T17:42:53.895Z,99712.00
2022-09-14T17:45:26.568Z,99704.00
2022-09-14T17:47:56.774Z,99700.00
2022-09-14T17:50:27.047Z,99713.00
2022-09-14T17:52:57.196Z,99707.00
2022-09-14T17:55:28.881Z,99708.00
2022-09-14T17:57:58.902Z,99725.00
2022-09-14T18:00:31.720Z,99723.00
2022-09-14T18:03:02.512Z,99717.00
2022-09-14T18:05:32.737Z,99724.00
2022-09-14T18:08:02.974Z,99720.00
2022-09-14T18:10:33.208Z,99721.00
2022-09-14T18:13:04.660Z,99708.00
2022-09-14T18:15:40.466Z,99708.00
2022-09-14T18:18:10.781Z,99706.00
2022-09-14T18:20:41.468Z,99713.00
2022-09-14T18:23:11.601Z,99703.00
2022-09-14T18:25:43.689Z,99704.00
2022-09-14T18:28:13.925Z,99696.00
2022-09-14T18:30:46.780Z,99700.00
2022-09-14T18:33:17.691Z,99695.00
2022-09-14T18:35:47.810Z,99688.00
2022-09-14T18:38:17.941Z,99691.00
2022-09-14T18:40:48.108Z,99680.00
2022-09-14T18:43:18.913Z,99691.00
2022-09-14T18:45:53.934Z,99694.00
2022-09-14T18:48:24.060Z,99700.00
2022-09-14T18:50:54.193Z,99694.00
2022-09-14T18:53:24.449Z,99694.00
2022-09-14T18:55:54.714Z,99694.00
2022-09-14T18:58:25.348Z,99695.00
2022-09-14T19:00:58.232Z,99702.00
2022-09-14T19:03:28.663Z,99692.00
2022-09-14T19:05:58.857Z,99687.00
2022-09-14T19:08:31.265Z,99692.00
2022-09-14T19:11:07.225Z,99691.00
2022-09-14T19:13:37.794Z,99686.00
2022-09-14T19:16:16.964Z,99688.00
2022-09-14T19:18:49.546Z,99689.00
2022-09-14T19:21:23.863Z,99686.00
2022-09-14T19:24:00.627Z,99695.00
2022-09-14T19:26:34.263Z,99695.00
2022-09-14T19:29:07.393Z,99693.00
2022-09-14T19:31:41.114Z,99696.00
2022-09-14T19:34:12.958Z,99686.00
2022-09-14T19:36:43.360Z,99689.00
2022-09-14T19:39:14.269Z,99690.00
2022-09-14T19:41:44.303Z,99695.00
2022-09-14T19:44:14.820Z,99692.00
2022-09-14T19:46:47.728Z,99695.00
2022-09-14T19:49:20.456Z,99704.00
2022-09-14T19:51:51.672Z,99692.00
2022-09-14T19:54:22.353Z,99701.00
2022-09-14T19:56:52.544Z,99686.00
2022-09-14T19:59:22.832Z,99704.00
2022-09-14T20:01:55.798Z,99692.00
2022-09-14T20:04:26.364Z,99693.00
2022-09-14T20:06:56.601Z,99693.00
2022-09-14T20:09:27.496Z,99695.00
2022-09-14T20:11:57.780Z,99689.00
2022-09-14T20:14:29.640Z,99694.00
2022-09-14T20:17:03.584Z,99694.00
2022-09-14T20:19:35.857Z,99687.00
2022-09-14T20:22:06.012Z,99685.00
2022-09-14T20:24:36.111Z,99691.00
2022-09-14T20:27:06.608Z,99692.00
2022-09-14T20:29:37.443Z,99686.00
2022-09-14T20:32:10.235Z,99687.00
2022-09-14T20:34:40.364Z,99692.00
2022-09-14T20:37:10.596Z,99695.00
2022-09-14T20:39:41.163Z,99685.00
2022-09-14T20:42:11.636Z,99682.00
2022-09-14T20:44:41.871Z,99682.00
2022-09-14T20:47:14.836Z,99675.00
2022-09-14T20:49:45.063Z,99676.00
2022-09-14T20:52:15.218Z,99683.00
2022-09-14T20:54:45.393Z,99685.00
2022-09-14T20:57:15.594Z,99683.00
2022-09-14T20:59:45.695Z,99682.00
2022-09-14T21:02:18.586Z,99688.00
2022-09-14T21:04:49.121Z,99685.00
2022-09-14T21:07:19.258Z,99698.00
2022-09-14T21:09:49.563Z,99690.00
2022-09-14T21:12:19.804Z,99687.00
2022-09-14T21:14:49.970Z,99683.00
2022-09-14T21:17:22.825Z,99686.00
2022-09-14T21:19:53.001Z,99689.00
2022-09-14T21:22:23.030Z,99685.00
2022-09-14T21:24:53.175Z,99689.00
2022-09-14T21:27:23.232Z,99679.00
2022-09-14T21:29:53.509Z,99675.00
2022-09-14T21:32:26.572Z,99679.00
2022-09-14T21:34:56.736Z,99671.00
2022-09-14T21:37:27.921Z,99677.00
2022-09-14T21:39:58.081Z,99673.00
2022-09-14T21:42:28.281Z,99683.00
2022-09-14T21:44:58.552Z,99681.00
2022-09-14T21:47:31.313Z,99687.00
2022-09-14T21:50:01.453Z,99690.00
2022-09-14T21:52:31.603Z,99685.00
2022-09-14T21:55:01.803Z,99680.00
2022-09-14T21:57:31.949Z,99683.00
2022-09-14T22:00:02.120Z,99687.00
2022-09-14T22:02:35.016Z,99686.00
2022-09-14T22:05:06.341Z,99677.00
2022-09-14T22:07:36.903Z,99681.00
2022-09-14T22:10:08.321Z,99686.00
2022-09-14T22:12:38.524Z,99673.00
2022-09-14T22:15:09.912Z,99672.00
2022-09-14T22:17:43.139Z,99682.00
2022-09-14T22:20:13.708Z,99674.00
2022-09-14T22:22:46.691Z,99671.00
2022-09-14T22:25:17.873Z,99671.00
2022-09-14T22:27:48.048Z,99672.00
2022-09-14T22:30:18.636Z,99664.00
2022-09-14T22:32:51.429Z,99661.00
2022-09-14T22:35:21.576Z,99669.00
2022-09-14T22:37:51.800Z,99662.00
2022-09-14T22:40:22.074Z,99655.00
2022-09-14T22:42:52.681Z,99656.00
2022-09-14T22:45:22.759Z,99664.00
2022-09-14T22:47:55.452Z,99661.00
2022-09-14T22:50:25.567Z,99665.00
2022-09-14T22:52:55.622Z,99650.00
2022-09-14T22:55:25.740Z,99654.00
2022-09-14T22:57:55.790Z,99660.00
2022-09-14T23:00:25.943Z,99661.00
2022-09-14T23:02:58.836Z,99663.00
2022-09-14T23:05:28.993Z,99657.00
2022-09-14T23:07:59.545Z,99659.00
2022-09-14T23:10:30.135Z,99667.00
2022-09-14T23:13:01.791Z,99665.00
2022-09-14T23:15:32.784Z,99665.00
2022-09-14T23:18:05.471Z,99664.00
2022-09-14T23:20:35.748Z,99666.00
2022-09-14T23:23:06.285Z,99657.00
2022-09-14T23:25:39.173Z,99660.00
2022-09-14T23:28:12.750Z,99661.00
2022-09-14T23:30:43.053Z,99650.00
2022-09-14T23:33:15.924Z,99664.00
2022-09-14T23:35:50.196Z,99653.00
2022-09-14T23:38:20.360Z,99657.00
2022-09-14T23:40:50.469Z,99645.00
2022-09-14T23:43:21.410Z,99653.00
2022-09-14T23:45:51.896Z,99655.00
2022-09-14T23:48:24.559Z,99649.00
2022-09-14T23:51:00.452Z,99653.00
2022-09-14T23:53:31.487Z,99651.00
2022-09-14T23:56:01.828Z,99646.00
2022-09-14T23:58:31.973Z,99644.00
